sensor_id;sensor_type;location;lat;lon;timestamp;P1;durP1;ratioP1;P2;durP2;ratioP2
74309;SDS011;62722;51.142;17.052;2023-07-02T00:02:22;9.57;;;6.07;;
74309;SDS011;62722;51.142;17.052;2023-07-02T00:04:49;8.73;;;5.53;;
74309;SDS011;62722;51.142;17.052;2023-07-02T00:07:19;7.75;;;5.40;;
74309;SDS011;62722;51.142;17.052;2023-07-02T00:09:46;9.48;;;5.70;;
74309;SDS011;62722;51.142;17.052;2023-07-02T00:12:14;9.38;;;5.78;;
74309;SDS011;62722;51.142;17.052;2023-07-02T00:14:44;8.27;;;5.40;;
74309;SDS011;62722;51.142;17.052;2023-07-02T00:17:11;9.05;;;5.40;;
74309;SDS011;62722;51.142;17.052;2023-07-02T00:19:39;9.05;;;5.88;;
74309;SDS011;62722;51.142;17.052;2023-07-02T00:22:07;9.88;;;5.97;;
74309;SDS011;62722;51.142;17.052;2023-07-02T00:24:34;8.95;;;5.78;;
74309;SDS011;62722;51.142;17.052;2023-07-02T00:27:03;9.45;;;5.65;;
74309;SDS011;62722;51.142;17.052;2023-07-02T00:29:30;9.55;;;6.07;;
74309;SDS011;62722;51.142;17.052;2023-07-02T00:32:00;9.65;;;4.85;;
74309;SDS011;62722;51.142;17.052;2023-07-02T00:34:27;7.85;;;5.80;;
74309;SDS011;62722;51.142;17.052;2023-07-02T00:36:54;7.65;;;5.00;;
74309;SDS011;62722;51.142;17.052;2023-07-02T00:39:22;8.18;;;4.93;;
74309;SDS011;62722;51.142;17.052;2023-07-02T00:41:49;8.55;;;5.25;;
74309;SDS011;62722;51.142;17.052;2023-07-02T00:44:17;6.88;;;4.13;;
74309;SDS011;62722;51.142;17.052;2023-07-02T00:46:44;6.45;;;3.78;;
74309;SDS011;62722;51.142;17.052;2023-07-02T00:49:13;7.93;;;3.55;;
74309;SDS011;62722;51.142;17.052;2023-07-02T00:51:41;5.70;;;3.58;;
74309;SDS011;62722;51.142;17.052;2023-07-02T00:54:08;5.95;;;3.35;;
74309;SDS011;62722;51.142;17.052;2023-07-02T00:56:35;6.25;;;3.70;;
74309;SDS011;62722;51.142;17.052;2023-07-02T00:59:03;5.43;;;2.83;;
74309;SDS011;62722;51.142;17.052;2023-07-02T01:01:31;7.38;;;3.45;;
74309;SDS011;62722;51.142;17.052;2023-07-02T01:04:04;4.93;;;3.10;;
74309;SDS011;62722;51.142;17.052;2023-07-02T01:06:35;5.00;;;2.53;;
74309;SDS011;62722;51.142;17.052;2023-07-02T01:09:06;3.67;;;2.58;;
74309;SDS011;62722;51.142;17.052;2023-07-02T01:11:34;4.20;;;2.50;;
74309;SDS011;62722;51.142;17.052;2023-07-02T01:14:10;5.25;;;2.28;;
74309;SDS011;62722;51.142;17.052;2023-07-02T01:16:40;4.72;;;2.10;;
74309;SDS011;62722;51.142;17.052;2023-07-02T01:19:11;3.20;;;1.73;;
74309;SDS011;62722;51.142;17.052;2023-07-02T01:21:45;3.00;;;1.80;;
74309;SDS011;62722;51.142;17.052;2023-07-02T01:24:13;3.10;;;2.00;;
74309;SDS011;62722;51.142;17.052;2023-07-02T01:26:41;3.20;;;1.90;;
74309;SDS011;62722;51.142;17.052;2023-07-02T01:29:13;3.97;;;1.90;;
74309;SDS011;62722;51.142;17.052;2023-07-02T01:31:44;4.20;;;1.90;;
74309;SDS011;62722;51.142;17.052;2023-07-02T01:34:12;3.05;;;1.63;;
74309;SDS011;62722;51.142;17.052;2023-07-02T01:36:40;3.75;;;1.80;;
74309;SDS011;62722;51.142;17.052;2023-07-02T01:39:09;3.13;;;1.70;;
74309;SDS011;62722;51.142;17.052;2023-07-02T01:41:37;2.80;;;1.73;;
74309;SDS011;62722;51.142;17.052;2023-07-02T01:44:09;4.30;;;1.65;;
74309;SDS011;62722;51.142;17.052;2023-07-02T01:46:36;7.13;;;2.13;;
74309;SDS011;62722;51.142;17.052;2023-07-02T01:49:04;5.25;;;2.00;;
74309;SDS011;62722;51.142;17.052;2023-07-02T01:51:31;3.55;;;1.70;;
74309;SDS011;62722;51.142;17.052;2023-07-02T01:53:59;4.97;;;2.10;;
74309;SDS011;62722;51.142;17.052;2023-07-02T01:56:28;4.35;;;1.58;;
74309;SDS011;62722;51.142;17.052;2023-07-02T01:58:56;6.53;;;2.85;;
74309;SDS011;62722;51.142;17.052;2023-07-02T02:01:23;3.10;;;1.70;;
74309;SDS011;62722;51.142;17.052;2023-07-02T02:03:51;2.58;;;1.55;;
74309;SDS011;62722;51.142;17.052;2023-07-02T02:06:18;4.15;;;2.13;;
74309;SDS011;62722;51.142;17.052;2023-07-02T02:08:46;3.20;;;1.80;;
74309;SDS011;62722;51.142;17.052;2023-07-02T02:11:13;3.45;;;1.90;;
74309;SDS011;62722;51.142;17.052;2023-07-02T02:13:42;4.60;;;1.83;;
74309;SDS011;62722;51.142;17.052;2023-07-02T02:16:10;5.32;;;2.15;;
74309;SDS011;62722;51.142;17.052;2023-07-02T02:18:37;5.18;;;2.15;;
74309;SDS011;62722;51.142;17.052;2023-07-02T02:21:05;3.22;;;2.00;;
74309;SDS011;62722;51.142;17.052;2023-07-02T02:23:32;3.95;;;1.80;;
74309;SDS011;62722;51.142;17.052;2023-07-02T02:25:59;3.67;;;1.70;;
74309;SDS011;62722;51.142;17.052;2023-07-02T02:28:27;4.22;;;1.80;;
74309;SDS011;62722;51.142;17.052;2023-07-02T02:30:56;3.30;;;1.50;;
74309;SDS011;62722;51.142;17.052;2023-07-02T02:33:23;3.72;;;1.73;;
74309;SDS011;62722;51.142;17.052;2023-07-02T02:35:50;3.63;;;1.90;;
74309;SDS011;62722;51.142;17.052;2023-07-02T02:38:18;2.60;;;1.70;;
74309;SDS011;62722;51.142;17.052;2023-07-02T02:40:45;3.47;;;1.58;;
74309;SDS011;62722;51.142;17.052;2023-07-02T02:43:13;3.67;;;2.05;;
74309;SDS011;62722;51.142;17.052;2023-07-02T02:45:42;4.00;;;1.95;;
74309;SDS011;62722;51.142;17.052;2023-07-02T02:48:12;5.57;;;1.70;;
74309;SDS011;62722;51.142;17.052;2023-07-02T02:50:39;2.58;;;1.40;;
74309;SDS011;62722;51.142;17.052;2023-07-02T02:53:10;2.45;;;1.67;;
74309;SDS011;62722;51.142;17.052;2023-07-02T02:55:37;3.22;;;1.75;;
74309;SDS011;62722;51.142;17.052;2023-07-02T02:58:05;3.58;;;1.60;;
74309;SDS011;62722;51.142;17.052;2023-07-02T03:00:32;3.30;;;1.67;;
74309;SDS011;62722;51.142;17.052;2023-07-02T03:03:00;3.55;;;1.65;;
74309;SDS011;62722;51.142;17.052;2023-07-02T03:05:29;4.90;;;1.45;;
74309;SDS011;62722;51.142;17.052;2023-07-02T03:07:57;2.60;;;1.30;;
74309;SDS011;62722;51.142;17.052;2023-07-02T03:10:24;3.00;;;1.30;;
74309;SDS011;62722;51.142;17.052;2023-07-02T03:12:51;2.95;;;1.33;;
74309;SDS011;62722;51.142;17.052;2023-07-02T03:15:19;3.15;;;1.45;;
74309;SDS011;62722;51.142;17.052;2023-07-02T03:17:46;2.42;;;1.40;;
74309;SDS011;62722;51.142;17.052;2023-07-02T03:20:13;2.45;;;1.33;;
74309;SDS011;62722;51.142;17.052;2023-07-02T03:22:43;3.50;;;1.40;;
74309;SDS011;62722;51.142;17.052;2023-07-02T03:25:11;2.78;;;1.35;;
74309;SDS011;62722;51.142;17.052;2023-07-02T03:27:38;3.45;;;1.20;;
74309;SDS011;62722;51.142;17.052;2023-07-02T03:30:06;2.80;;;1.20;;
74309;SDS011;62722;51.142;17.052;2023-07-02T03:32:34;2.00;;;1.10;;
74309;SDS011;62722;51.142;17.052;2023-07-02T03:35:01;2.55;;;1.20;;
74309;SDS011;62722;51.142;17.052;2023-07-02T03:37:29;2.10;;;1.20;;
74309;SDS011;62722;51.142;17.052;2023-07-02T03:39:58;2.05;;;1.20;;
74309;SDS011;62722;51.142;17.052;2023-07-02T03:42:25;2.20;;;1.30;;
74309;SDS011;62722;51.142;17.052;2023-07-02T03:44:53;1.75;;;0.98;;
74309;SDS011;62722;51.142;17.052;2023-07-02T03:47:20;3.28;;;1.30;;
74309;SDS011;62722;51.142;17.052;2023-07-02T03:49:47;2.65;;;1.30;;
74309;SDS011;62722;51.142;17.052;2023-07-02T03:52:15;2.00;;;1.20;;
74309;SDS011;62722;51.142;17.052;2023-07-02T03:54:42;2.33;;;1.13;;
74309;SDS011;62722;51.142;17.052;2023-07-02T03:57:11;2.75;;;1.27;;
74309;SDS011;62722;51.142;17.052;2023-07-02T03:59:38;2.65;;;1.40;;
74309;SDS011;62722;51.142;17.052;2023-07-02T04:02:05;3.53;;;1.30;;
74309;SDS011;62722;51.142;17.052;2023-07-02T04:04:33;2.30;;;1.38;;
74309;SDS011;62722;51.142;17.052;2023-07-02T04:07:00;2.50;;;1.20;;
74309;SDS011;62722;51.142;17.052;2023-07-02T04:09:28;2.83;;;1.45;;
74309;SDS011;62722;51.142;17.052;2023-07-02T04:11:57;2.92;;;1.35;;
74309;SDS011;62722;51.142;17.052;2023-07-02T04:14:26;2.15;;;1.55;;
74309;SDS011;62722;51.142;17.052;2023-07-02T04:16:54;2.22;;;1.40;;
74309;SDS011;62722;51.142;17.052;2023-07-02T04:19:21;2.92;;;1.60;;
74309;SDS011;62722;51.142;17.052;2023-07-02T04:21:48;3.05;;;1.80;;
74309;SDS011;62722;51.142;17.052;2023-07-02T04:24:16;2.90;;;1.40;;
74309;SDS011;62722;51.142;17.052;2023-07-02T04:26:43;2.50;;;1.50;;
74309;SDS011;62722;51.142;17.052;2023-07-02T04:29:10;3.20;;;1.52;;
74309;SDS011;62722;51.142;17.052;2023-07-02T04:31:39;2.75;;;1.58;;
74309;SDS011;62722;51.142;17.052;2023-07-02T04:34:07;4.28;;;1.73;;
74309;SDS011;62722;51.142;17.052;2023-07-02T04:36:34;2.45;;;1.60;;
74309;SDS011;62722;51.142;17.052;2023-07-02T04:39:01;2.70;;;1.52;;
74309;SDS011;62722;51.142;17.052;2023-07-02T04:41:29;2.80;;;1.58;;
74309;SDS011;62722;51.142;17.052;2023-07-02T04:43:58;2.60;;;1.40;;
74309;SDS011;62722;51.142;17.052;2023-07-02T04:46:25;3.65;;;1.80;;
74309;SDS011;62722;51.142;17.052;2023-07-02T04:48:54;2.33;;;1.80;;
74309;SDS011;62722;51.142;17.052;2023-07-02T04:51:21;2.60;;;1.67;;
74309;SDS011;62722;51.142;17.052;2023-07-02T04:53:48;2.72;;;1.60;;
74309;SDS011;62722;51.142;17.052;2023-07-02T04:56:16;2.90;;;1.70;;
74309;SDS011;62722;51.142;17.052;2023-07-02T04:58:43;2.92;;;1.65;;
74309;SDS011;62722;51.142;17.052;2023-07-02T05:01:10;3.45;;;1.63;;
74309;SDS011;62722;51.142;17.052;2023-07-02T05:03:38;2.85;;;1.60;;
74309;SDS011;62722;51.142;17.052;2023-07-02T05:06:08;2.78;;;1.67;;
74309;SDS011;62722;51.142;17.052;2023-07-02T05:08:35;2.50;;;1.60;;
74309;SDS011;62722;51.142;17.052;2023-07-02T05:11:03;2.78;;;1.52;;
74309;SDS011;62722;51.142;17.052;2023-07-02T05:13:30;2.70;;;1.90;;
74309;SDS011;62722;51.142;17.052;2023-07-02T05:15:58;3.50;;;1.77;;
74309;SDS011;62722;51.142;17.052;2023-07-02T05:18:25;3.70;;;1.90;;
74309;SDS011;62722;51.142;17.052;2023-07-02T05:20:53;3.47;;;1.88;;
74309;SDS011;62722;51.142;17.052;2023-07-02T05:23:22;2.97;;;1.70;;
74309;SDS011;62722;51.142;17.052;2023-07-02T05:25:49;3.28;;;1.90;;
74309;SDS011;62722;51.142;17.052;2023-07-02T05:28:17;3.40;;;2.08;;
74309;SDS011;62722;51.142;17.052;2023-07-02T05:30:44;4.65;;;2.05;;
74309;SDS011;62722;51.142;17.052;2023-07-02T05:33:11;3.13;;;1.90;;
74309;SDS011;62722;51.142;17.052;2023-07-02T05:35:39;2.97;;;1.90;;
74309;SDS011;62722;51.142;17.052;2023-07-02T05:38:06;3.67;;;2.25;;
74309;SDS011;62722;51.142;17.052;2023-07-02T05:40:35;3.50;;;2.17;;
74309;SDS011;62722;51.142;17.052;2023-07-02T05:43:02;3.67;;;2.03;;
74309;SDS011;62722;51.142;17.052;2023-07-02T05:45:30;2.53;;;2.00;;
74309;SDS011;62722;51.142;17.052;2023-07-02T05:47:57;3.03;;;1.85;;
74309;SDS011;62722;51.142;17.052;2023-07-02T05:50:25;3.05;;;1.88;;
74309;SDS011;62722;51.142;17.052;2023-07-02T05:52:54;3.10;;;2.00;;
74309;SDS011;62722;51.142;17.052;2023-07-02T05:55:21;3.50;;;2.00;;
74309;SDS011;62722;51.142;17.052;2023-07-02T05:57:50;3.08;;;1.92;;
74309;SDS011;62722;51.142;17.052;2023-07-02T06:00:17;2.80;;;1.83;;
74309;SDS011;62722;51.142;17.052;2023-07-02T06:02:47;3.78;;;1.73;;
74309;SDS011;62722;51.142;17.052;2023-07-02T06:05:15;3.58;;;2.20;;
74309;SDS011;62722;51.142;17.052;2023-07-02T06:07:42;4.15;;;2.10;;
74309;SDS011;62722;51.142;17.052;2023-07-02T06:10:10;3.65;;;2.00;;
74309;SDS011;62722;51.142;17.052;2023-07-02T06:12:37;3.50;;;2.10;;
74309;SDS011;62722;51.142;17.052;2023-07-02T06:15:07;2.80;;;1.88;;
74309;SDS011;62722;51.142;17.052;2023-07-02T06:17:34;4.28;;;2.22;;
74309;SDS011;62722;51.142;17.052;2023-07-02T06:20:02;3.22;;;1.85;;
74309;SDS011;62722;51.142;17.052;2023-07-02T06:22:31;3.35;;;2.10;;
74309;SDS011;62722;51.142;17.052;2023-07-02T06:24:58;3.03;;;2.20;;
74309;SDS011;62722;51.142;17.052;2023-07-02T06:27:26;3.83;;;2.40;;
74309;SDS011;62722;51.142;17.052;2023-07-02T06:29:53;3.80;;;1.90;;
74309;SDS011;62722;51.142;17.052;2023-07-02T06:32:22;3.20;;;1.80;;
74309;SDS011;62722;51.142;17.052;2023-07-02T06:34:49;3.88;;;2.05;;
74309;SDS011;62722;51.142;17.052;2023-07-02T06:37:17;2.80;;;1.90;;
74309;SDS011;62722;51.142;17.052;2023-07-02T06:39:44;2.88;;;1.95;;
74309;SDS011;62722;51.142;17.052;2023-07-02T06:42:11;3.58;;;2.33;;
74309;SDS011;62722;51.142;17.052;2023-07-02T06:44:40;3.45;;;2.08;;
74309;SDS011;62722;51.142;17.052;2023-07-02T06:47:07;4.38;;;2.03;;
74309;SDS011;62722;51.142;17.052;2023-07-02T06:49:36;2.72;;;1.70;;
74309;SDS011;62722;51.142;17.052;2023-07-02T06:52:03;2.92;;;2.10;;
74309;SDS011;62722;51.142;17.052;2023-07-02T06:54:31;2.55;;;1.80;;
74309;SDS011;62722;51.142;17.052;2023-07-02T06:56:59;2.75;;;1.70;;
74309;SDS011;62722;51.142;17.052;2023-07-02T06:59:26;3.13;;;2.10;;
74309;SDS011;62722;51.142;17.052;2023-07-02T07:01:53;2.45;;;1.75;;
74309;SDS011;62722;51.142;17.052;2023-07-02T07:04:21;3.58;;;2.28;;
74309;SDS011;62722;51.142;17.052;2023-07-02T07:06:50;3.58;;;2.20;;
74309;SDS011;62722;51.142;17.052;2023-07-02T07:09:17;4.53;;;2.55;;
74309;SDS011;62722;51.142;17.052;2023-07-02T07:11:45;3.03;;;2.00;;
74309;SDS011;62722;51.142;17.052;2023-07-02T07:14:12;3.25;;;2.40;;
74309;SDS011;62722;51.142;17.052;2023-07-02T07:16:45;3.40;;;2.35;;
74309;SDS011;62722;51.142;17.052;2023-07-02T07:19:12;3.78;;;2.30;;
74309;SDS011;62722;51.142;17.052;2023-07-02T07:21:40;3.35;;;2.13;;
74309;SDS011;62722;51.142;17.052;2023-07-02T07:24:09;3.15;;;2.08;;
74309;SDS011;62722;51.142;17.052;2023-07-02T07:26:37;4.03;;;2.40;;
74309;SDS011;62722;51.142;17.052;2023-07-02T07:29:04;3.80;;;2.33;;
74309;SDS011;62722;51.142;17.052;2023-07-02T07:31:31;3.65;;;2.50;;
74309;SDS011;62722;51.142;17.052;2023-07-02T07:33:59;3.40;;;2.60;;
74309;SDS011;62722;51.142;17.052;2023-07-02T07:36:26;3.97;;;2.40;;
74309;SDS011;62722;51.142;17.052;2023-07-02T07:38:54;4.20;;;2.50;;
74309;SDS011;62722;51.142;17.052;2023-07-02T07:41:22;3.78;;;2.38;;
74309;SDS011;62722;51.142;17.052;2023-07-02T07:43:50;3.10;;;2.38;;
74309;SDS011;62722;51.142;17.052;2023-07-02T07:46:17;3.67;;;2.70;;
74309;SDS011;62722;51.142;17.052;2023-07-02T07:48:45;3.88;;;2.83;;
74309;SDS011;62722;51.142;17.052;2023-07-02T07:51:15;5.25;;;2.80;;
74309;SDS011;62722;51.142;17.052;2023-07-02T07:53:42;3.50;;;2.50;;
74309;SDS011;62722;51.142;17.052;2023-07-02T07:56:09;4.03;;;3.10;;
74309;SDS011;62722;51.142;17.052;2023-07-02T07:58:38;4.30;;;3.00;;
74309;SDS011;62722;51.142;17.052;2023-07-02T08:01:05;3.35;;;2.50;;
74309;SDS011;62722;51.142;17.052;2023-07-02T08:03:33;4.00;;;2.60;;
74309;SDS011;62722;51.142;17.052;2023-07-02T08:06:00;3.47;;;2.35;;
74309;SDS011;62722;51.142;17.052;2023-07-02T08:08:28;3.40;;;2.90;;
74309;SDS011;62722;51.142;17.052;2023-07-02T08:10:55;3.63;;;2.50;;
74309;SDS011;62722;51.142;17.052;2023-07-02T08:13:22;3.25;;;2.70;;
74309;SDS011;62722;51.142;17.052;2023-07-02T08:15:51;3.60;;;2.15;;
74309;SDS011;62722;51.142;17.052;2023-07-02T08:18:19;3.55;;;2.22;;
74309;SDS011;62722;51.142;17.052;2023-07-02T08:20:46;3.00;;;2.70;;
74309;SDS011;62722;51.142;17.052;2023-07-02T08:23:13;3.92;;;2.55;;
74309;SDS011;62722;51.142;17.052;2023-07-02T08:25:40;3.10;;;2.50;;
74309;SDS011;62722;51.142;17.052;2023-07-02T08:28:08;4.00;;;2.75;;
74309;SDS011;62722;51.142;17.052;2023-07-02T08:30:35;3.40;;;2.80;;
74309;SDS011;62722;51.142;17.052;2023-07-02T08:33:04;3.72;;;2.80;;
74309;SDS011;62722;51.142;17.052;2023-07-02T08:35:31;4.15;;;2.67;;
74309;SDS011;62722;51.142;17.052;2023-07-02T08:37:59;3.40;;;2.60;;
74309;SDS011;62722;51.142;17.052;2023-07-02T08:40:26;3.25;;;2.60;;
74309;SDS011;62722;51.142;17.052;2023-07-02T08:42:54;4.53;;;3.30;;
74309;SDS011;62722;51.142;17.052;2023-07-02T08:45:22;4.72;;;3.80;;
74309;SDS011;62722;51.142;17.052;2023-07-02T08:47:51;4.95;;;3.03;;
74309;SDS011;62722;51.142;17.052;2023-07-02T08:50:23;3.92;;;3.00;;
74309;SDS011;62722;51.142;17.052;2023-07-02T08:52:51;4.05;;;3.38;;
74309;SDS011;62722;51.142;17.052;2023-07-02T08:55:20;4.75;;;3.80;;
74309;SDS011;62722;51.142;17.052;2023-07-02T08:57:49;5.22;;;3.97;;
74309;SDS011;62722;51.142;17.052;2023-07-02T09:00:19;3.85;;;3.13;;
74309;SDS011;62722;51.142;17.052;2023-07-02T09:02:47;5.15;;;3.20;;
74309;SDS011;62722;51.142;17.052;2023-07-02T09:05:16;4.15;;;3.25;;
74309;SDS011;62722;51.142;17.052;2023-07-02T09:07:46;4.30;;;3.13;;
74309;SDS011;62722;51.142;17.052;2023-07-02T09:10:25;3.90;;;3.03;;
74309;SDS011;62722;51.142;17.052;2023-07-02T09:13:02;5.55;;;3.08;;
74309;SDS011;62722;51.142;17.052;2023-07-02T09:15:34;3.72;;;2.92;;
74309;SDS011;62722;51.142;17.052;2023-07-02T09:18:14;4.57;;;3.20;;
74309;SDS011;62722;51.142;17.052;2023-07-02T09:20:42;3.92;;;3.33;;
74309;SDS011;62722;51.142;17.052;2023-07-02T09:23:11;4.63;;;3.00;;
74309;SDS011;62722;51.142;17.052;2023-07-02T09:25:39;3.65;;;2.50;;
74309;SDS011;62722;51.142;17.052;2023-07-02T09:28:14;4.70;;;3.00;;
74309;SDS011;62722;51.142;17.052;2023-07-02T09:30:49;3.45;;;2.60;;
74309;SDS011;62722;51.142;17.052;2023-07-02T09:33:20;4.15;;;3.00;;
74309;SDS011;62722;51.142;17.052;2023-07-02T09:35:47;3.92;;;2.72;;
74309;SDS011;62722;51.142;17.052;2023-07-02T09:38:19;3.95;;;2.90;;
74309;SDS011;62722;51.142;17.052;2023-07-02T09:40:48;4.35;;;2.80;;
74309;SDS011;62722;51.142;17.052;2023-07-02T09:43:17;3.83;;;2.75;;
74309;SDS011;62722;51.142;17.052;2023-07-02T09:45:46;4.20;;;2.78;;
74309;SDS011;62722;51.142;17.052;2023-07-02T09:48:15;4.93;;;2.53;;
74309;SDS011;62722;51.142;17.052;2023-07-02T09:50:44;4.78;;;2.70;;
74309;SDS011;62722;51.142;17.052;2023-07-02T09:53:12;3.45;;;2.60;;
74309;SDS011;62722;51.142;17.052;2023-07-02T09:55:41;3.92;;;2.60;;
74309;SDS011;62722;51.142;17.052;2023-07-02T09:58:09;3.13;;;2.42;;
74309;SDS011;62722;51.142;17.052;2023-07-02T10:00:37;4.30;;;2.70;;
74309;SDS011;62722;51.142;17.052;2023-07-02T10:05:40;6.47;;;2.92;;
74309;SDS011;62722;51.142;17.052;2023-07-02T10:08:11;5.72;;;3.30;;
74309;SDS011;62722;51.142;17.052;2023-07-02T10:10:41;4.82;;;3.20;;
74309;SDS011;62722;51.142;17.052;2023-07-02T10:13:09;4.35;;;3.25;;
74309;SDS011;62722;51.142;17.052;2023-07-02T10:15:36;4.00;;;2.63;;
74309;SDS011;62722;51.142;17.052;2023-07-02T10:18:05;3.45;;;2.60;;
74309;SDS011;62722;51.142;17.052;2023-07-02T10:20:33;3.83;;;2.58;;
74309;SDS011;62722;51.142;17.052;2023-07-02T10:23:02;5.05;;;3.17;;
74309;SDS011;62722;51.142;17.052;2023-07-02T10:25:30;3.90;;;2.45;;
74309;SDS011;62722;51.142;17.052;2023-07-02T10:28:01;6.20;;;3.10;;
74309;SDS011;62722;51.142;17.052;2023-07-02T10:30:40;3.70;;;2.40;;
74309;SDS011;62722;51.142;17.052;2023-07-02T10:33:09;2.90;;;2.38;;
74309;SDS011;62722;51.142;17.052;2023-07-02T10:35:38;3.53;;;2.50;;
74309;SDS011;62722;51.142;17.052;2023-07-02T10:38:07;3.13;;;2.67;;
74309;SDS011;62722;51.142;17.052;2023-07-02T10:40:45;3.63;;;2.03;;
74309;SDS011;62722;51.142;17.052;2023-07-02T10:43:23;2.85;;;2.00;;
74309;SDS011;62722;51.142;17.052;2023-07-02T10:45:51;3.70;;;2.20;;
74309;SDS011;62722;51.142;17.052;2023-07-02T10:48:19;3.20;;;2.53;;
74309;SDS011;62722;51.142;17.052;2023-07-02T10:50:46;2.97;;;2.20;;
74309;SDS011;62722;51.142;17.052;2023-07-02T10:53:14;3.58;;;2.35;;
74309;SDS011;62722;51.142;17.052;2023-07-02T10:55:43;3.33;;;2.58;;
74309;SDS011;62722;51.142;17.052;2023-07-02T10:58:11;2.70;;;2.03;;
74309;SDS011;62722;51.142;17.052;2023-07-02T11:00:44;4.40;;;2.17;;
74309;SDS011;62722;51.142;17.052;2023-07-02T11:03:16;4.25;;;2.60;;
74309;SDS011;62722;51.142;17.052;2023-07-02T11:05:45;2.63;;;1.95;;
74309;SDS011;62722;51.142;17.052;2023-07-02T11:08:16;2.95;;;2.20;;
74309;SDS011;62722;51.142;17.052;2023-07-02T11:10:46;2.97;;;2.17;;
74309;SDS011;62722;51.142;17.052;2023-07-02T11:13:15;3.05;;;1.80;;
74309;SDS011;62722;51.142;17.052;2023-07-02T11:15:45;2.95;;;2.00;;
74309;SDS011;62722;51.142;17.052;2023-07-02T11:18:14;4.68;;;2.20;;
74309;SDS011;62722;51.142;17.052;2023-07-02T11:20:46;3.58;;;2.30;;
74309;SDS011;62722;51.142;17.052;2023-07-02T11:23:17;2.67;;;2.00;;
74309;SDS011;62722;51.142;17.052;2023-07-02T11:25:54;3.50;;;2.15;;
74309;SDS011;62722;51.142;17.052;2023-07-02T11:28:23;3.22;;;2.10;;
74309;SDS011;62722;51.142;17.052;2023-07-02T11:30:52;3.40;;;2.30;;
74309;SDS011;62722;51.142;17.052;2023-07-02T11:33:20;2.60;;;1.95;;
74309;SDS011;62722;51.142;17.052;2023-07-02T11:35:58;3.92;;;2.22;;
74309;SDS011;62722;51.142;17.052;2023-07-02T11:38:26;3.80;;;2.35;;
74309;SDS011;62722;51.142;17.052;2023-07-02T11:40:53;3.28;;;2.22;;
74309;SDS011;62722;51.142;17.052;2023-07-02T11:43:21;2.97;;;2.30;;
74309;SDS011;62722;51.142;17.052;2023-07-02T11:45:48;2.90;;;2.40;;
74309;SDS011;62722;51.142;17.052;2023-07-02T11:48:17;2.90;;;2.35;;
74309;SDS011;62722;51.142;17.052;2023-07-02T11:50:45;4.10;;;2.63;;
74309;SDS011;62722;51.142;17.052;2023-07-02T11:53:12;3.20;;;2.13;;
74309;SDS011;62722;51.142;17.052;2023-07-02T11:55:40;4.10;;;2.40;;
74309;SDS011;62722;51.142;17.052;2023-07-02T11:58:07;4.95;;;2.53;;
74309;SDS011;62722;51.142;17.052;2023-07-02T12:00:34;3.47;;;2.33;;
74309;SDS011;62722;51.142;17.052;2023-07-02T12:03:02;3.78;;;2.22;;
74309;SDS011;62722;51.142;17.052;2023-07-02T12:05:31;3.60;;;2.60;;
74309;SDS011;62722;51.142;17.052;2023-07-02T12:07:58;6.22;;;2.60;;
74309;SDS011;62722;51.142;17.052;2023-07-02T12:10:25;3.75;;;2.00;;
74309;SDS011;62722;51.142;17.052;2023-07-02T12:12:53;3.85;;;2.20;;
74309;SDS011;62722;51.142;17.052;2023-07-02T12:15:20;3.55;;;2.17;;
74309;SDS011;62722;51.142;17.052;2023-07-02T12:17:48;3.20;;;2.10;;
74309;SDS011;62722;51.142;17.052;2023-07-02T12:20:15;3.25;;;2.13;;
74309;SDS011;62722;51.142;17.052;2023-07-02T12:22:48;4.65;;;2.28;;
74309;SDS011;62722;51.142;17.052;2023-07-02T12:25:16;2.78;;;1.90;;
74309;SDS011;62722;51.142;17.052;2023-07-02T12:27:43;3.38;;;2.00;;
74309;SDS011;62722;51.142;17.052;2023-07-02T12:30:11;3.72;;;2.25;;
74309;SDS011;62722;51.142;17.052;2023-07-02T12:32:42;2.33;;;2.05;;
74309;SDS011;62722;51.142;17.052;2023-07-02T12:35:10;3.33;;;2.28;;
74309;SDS011;62722;51.142;17.052;2023-07-02T12:37:44;3.60;;;2.10;;
74309;SDS011;62722;51.142;17.052;2023-07-02T12:40:16;2.45;;;1.73;;
74309;SDS011;62722;51.142;17.052;2023-07-02T12:42:44;3.55;;;2.10;;
74309;SDS011;62722;51.142;17.052;2023-07-02T12:45:12;2.95;;;1.90;;
74309;SDS011;62722;51.142;17.052;2023-07-02T12:47:42;2.70;;;2.08;;
74309;SDS011;62722;51.142;17.052;2023-07-02T12:50:10;4.00;;;2.20;;
74309;SDS011;62722;51.142;17.052;2023-07-02T12:52:39;4.25;;;2.25;;
74309;SDS011;62722;51.142;17.052;2023-07-02T12:55:06;2.67;;;2.15;;
74309;SDS011;62722;51.142;17.052;2023-07-02T12:57:37;3.83;;;2.30;;
74309;SDS011;62722;51.142;17.052;2023-07-02T13:00:04;3.58;;;2.10;;
74309;SDS011;62722;51.142;17.052;2023-07-02T13:05:04;3.35;;;2.25;;
74309;SDS011;62722;51.142;17.052;2023-07-02T13:07:33;3.38;;;2.10;;
74309;SDS011;62722;51.142;17.052;2023-07-02T13:10:00;6.22;;;2.05;;
74309;SDS011;62722;51.142;17.052;2023-07-02T13:12:31;4.80;;;2.03;;
74309;SDS011;62722;51.142;17.052;2023-07-02T13:15:00;2.67;;;2.10;;
74309;SDS011;62722;51.142;17.052;2023-07-02T13:17:28;3.15;;;2.28;;
74309;SDS011;62722;51.142;17.052;2023-07-02T13:19:55;3.97;;;2.10;;
74309;SDS011;62722;51.142;17.052;2023-07-02T13:22:24;3.15;;;1.90;;
74309;SDS011;62722;51.142;17.052;2023-07-02T13:24:51;3.03;;;1.95;;
74309;SDS011;62722;51.142;17.052;2023-07-02T13:27:20;3.58;;;2.28;;
74309;SDS011;62722;51.142;17.052;2023-07-02T13:29:47;3.47;;;1.90;;
74309;SDS011;62722;51.142;17.052;2023-07-02T13:32:16;3.10;;;2.10;;
74309;SDS011;62722;51.142;17.052;2023-07-02T13:34:43;2.67;;;1.90;;
74309;SDS011;62722;51.142;17.052;2023-07-02T13:37:11;2.53;;;1.90;;
74309;SDS011;62722;51.142;17.052;2023-07-02T13:39:39;2.92;;;1.95;;
74309;SDS011;62722;51.142;17.052;2023-07-02T13:42:07;2.83;;;1.95;;
74309;SDS011;62722;51.142;17.052;2023-07-02T13:44:34;2.60;;;1.70;;
74309;SDS011;62722;51.142;17.052;2023-07-02T13:47:01;2.40;;;1.80;;
74309;SDS011;62722;51.142;17.052;2023-07-02T13:49:30;2.70;;;2.00;;
74309;SDS011;62722;51.142;17.052;2023-07-02T13:51:59;3.40;;;1.98;;
74309;SDS011;62722;51.142;17.052;2023-07-02T13:54:26;2.85;;;1.80;;
74309;SDS011;62722;51.142;17.052;2023-07-02T13:56:55;3.53;;;2.20;;
74309;SDS011;62722;51.142;17.052;2023-07-02T13:59:24;3.20;;;1.92;;
74309;SDS011;62722;51.142;17.052;2023-07-02T14:01:52;5.10;;;2.08;;
74309;SDS011;62722;51.142;17.052;2023-07-02T14:04:20;4.25;;;1.90;;
74309;SDS011;62722;51.142;17.052;2023-07-02T14:06:48;3.90;;;2.03;;
74309;SDS011;62722;51.142;17.052;2023-07-02T14:09:15;3.67;;;2.25;;
74309;SDS011;62722;51.142;17.052;2023-07-02T14:11:43;6.03;;;2.70;;
74309;SDS011;62722;51.142;17.052;2023-07-02T14:14:10;3.42;;;2.30;;
74309;SDS011;62722;51.142;17.052;2023-07-02T14:16:40;2.40;;;1.80;;
74309;SDS011;62722;51.142;17.052;2023-07-02T14:19:07;3.17;;;1.88;;
74309;SDS011;62722;51.142;17.052;2023-07-02T14:21:35;2.38;;;1.80;;
74309;SDS011;62722;51.142;17.052;2023-07-02T14:24:02;3.47;;;2.05;;
74309;SDS011;62722;51.142;17.052;2023-07-02T14:26:32;3.63;;;2.00;;
74309;SDS011;62722;51.142;17.052;2023-07-02T14:28:59;4.78;;;2.00;;
74309;SDS011;62722;51.142;17.052;2023-07-02T14:31:27;3.72;;;2.30;;
74309;SDS011;62722;51.142;17.052;2023-07-02T14:33:56;3.08;;;2.40;;
74309;SDS011;62722;51.142;17.052;2023-07-02T14:36:29;2.65;;;1.88;;
74309;SDS011;62722;51.142;17.052;2023-07-02T14:38:56;3.80;;;2.03;;
74309;SDS011;62722;51.142;17.052;2023-07-02T14:41:24;2.88;;;2.05;;
74309;SDS011;62722;51.142;17.052;2023-07-02T14:43:52;3.75;;;2.55;;
74309;SDS011;62722;51.142;17.052;2023-07-02T14:46:19;3.20;;;2.10;;